Airfield :
LOGIN :

Register | Disclaimer

   EN    FR    IT 

 










Legend :    VFR   Marginal VFR   IFR   Intensive IFR   Very Intensive IFR
Visi :
Ceiling :
>= 8 km
>= 3000ft
5 to 8 km
1000 to 3000 ft
1500m to 5 km
500 to 1000 ft
800 to 1500m
200 to 500 ft
< 800m
< 200 ft
Symbols :   Thunderstorms  Fog  Heavy snow  Heavy precipitations  Wind > 20 kt
SIGMETs :     Misc.  Thunderstorms  Icing  Turbulence  Mountain Waves  Volcanic Ashes






- Airport Elevation : 90 ft
- IATA code : NTE


LFRS - Nantes

CURRENT METAR :
  • 220830Z AUTO 28007KT 250V320 9999 SCT019 BKN026 BKN033 17/13 Q1017 NOSIG

EXPIRED METARs :
  • 220800Z AUTO 28008KT 9999 SCT018 BKN054 OVC064 17/14 Q1017 NOSIG
  • 220730Z AUTO 28008KT 9999 FEW016 SCT056 OVC066 16/14 Q1017 NOSIG
  • 220700Z AUTO 28007KT 9999 FEW014 BKN058 OVC068 16/14 Q1017 NOSIG
  • 220630Z AUTO 28007KT 260V330 CAVOK 15/13 Q1017 NOSIG
  • 220600Z AUTO 29007KT CAVOK 15/13 Q1017 NOSIG
  • 220530Z AUTO 28007KT CAVOK 15/13 Q1016 NOSIG
  • 220500Z AUTO 27007KT CAVOK 14/13 Q1016 NOSIG
  • 220430Z AUTO 26007KT CAVOK 14/13 Q1016 NOSIG
  • 220400Z AUTO 27007KT 9999 FEW015 SCT064 15/13 Q1016 NOSIG

TAF TAF LFRS
Valid from the 22 at 06:00 until the 23 at 12:00 UTC


220500Z 2206/2312 27008KT 9999 SCT020 SCT040
BECMG 2220/2222 VRB03KT
TEMPO 2302/2307 3000 BR
PROB30
TEMPO 2303/2306 0500 FG VV///
ATIS : +33 2 40 05 12 74



MET'MAP, your aeronautical weather chart ! - Copyright ORBIFLY December 2007 - Disclaimer

ORBIFLY MET'MAP TEAM :

Programming & Development : Alexandra Zaïnal
Original concept : Baudouin d'Aumeries
Technical & hardware support : Manuel Goepfert
Assistance : Marc-Olivier Méhu




SOURCES & CREDITS :

   NOAA